Edgeworth, Pennsylvania
Current Conditions -  °F | °C
As of 6:51 PM on Monday 24 Nov 2014 (Local Time) from KPIT Reporting Station
Few Clouds Few Clouds  
Wind Chill: 13°   Ceiling: Unl
Heat Index: 13°   Visibility: 10mi
Dew Point:   Wind: 15mph
Humidity: 59%   Direction: 240°WSW
Pressure: 29.65"   Gusts: 24mph
Location:  40.5741°N, 80.1457°W
Report Text: KPIT 242351Z 24013G21KT 10SM FEW025 13/05 A2965 RMK AO2 SLP046 6//// T01280050 10200 20128 51048
Loading
Personal Weather Stations






























Interactive Weather Map New forecast layout! Learn more

10-Day Weather Forecast

Advertisements
Track Severe Weather on mobile